createdAt,value
2022-10-30T00:01:15.306Z,42.45
2022-10-30T00:03:19.934Z,47.25
2022-10-30T00:05:24.843Z,40.42
2022-10-30T00:07:29.044Z,39.33
2022-10-30T00:09:33.230Z,45.30
2022-10-30T00:11:37.400Z,44.17
2022-10-30T00:13:43.851Z,41.45
2022-10-30T00:15:53.367Z,39.78
2022-10-30T00:17:59.707Z,49.03
2022-10-30T00:20:04.972Z,42.20
2022-10-30T00:22:09.526Z,43.83
2022-10-30T00:24:13.894Z,43.10
2022-10-30T00:26:19.332Z,45.03
2022-10-30T00:28:24.144Z,42.30
2022-10-30T00:30:28.569Z,39.70
2022-10-30T00:32:33.088Z,38.03
2022-10-30T00:34:39.190Z,42.63
2022-10-30T00:36:45.263Z,36.85
2022-10-30T00:38:49.829Z,43.65
2022-10-30T00:40:57.229Z,44.00
2022-10-30T00:43:01.859Z,36.47
2022-10-30T00:45:06.986Z,36.75
2022-10-30T00:47:17.115Z,41.33
2022-10-30T00:51:29.332Z,41.70
2022-10-30T00:53:33.849Z,42.50
2022-10-30T00:55:41.535Z,38.30
2022-10-30T00:57:47.138Z,43.83
2022-10-30T00:59:52.638Z,39.47
2022-10-30T01:01:57.924Z,39.70
2022-10-30T01:04:05.105Z,37.60
2022-10-30T01:06:13.062Z,38.83
2022-10-30T01:08:18.944Z,41.17
2022-10-30T01:10:24.046Z,41.28
2022-10-30T01:12:28.387Z,45.00
2022-10-30T01:14:33.303Z,40.72
2022-10-30T01:16:50.321Z,42.35
2022-10-30T01:19:01.721Z,40.45
2022-10-30T01:21:21.049Z,38.88
2022-10-30T01:23:39.516Z,38.67
2022-10-30T01:25:57.913Z,46.08
2022-10-30T01:28:10.178Z,46.90
2022-10-30T01:30:28.027Z,41.13
2022-10-30T01:32:46.249Z,42.65
2022-10-30T01:34:57.537Z,38.53
2022-10-30T01:37:07.229Z,39.17
2022-10-30T01:39:17.401Z,44.20
2022-10-30T01:41:21.827Z,46.05
2022-10-30T01:43:26.334Z,38.65
2022-10-30T01:45:51.563Z,38.40
2022-10-30T01:48:15.635Z,45.03
2022-10-30T01:50:35.598Z,41.45
2022-10-30T01:52:49.211Z,47.13
2022-10-30T01:55:05.942Z,41.22
2022-10-30T01:57:17.843Z,42.80
2022-10-30T01:59:31.096Z,47.90
2022-10-30T02:01:36.981Z,47.55
2022-10-30T02:03:42.018Z,45.83
2022-10-30T02:05:50.371Z,55.47
2022-10-30T02:07:56.491Z,44.28
2022-10-30T02:10:05.783Z,51.85
2022-10-30T02:12:10.979Z,46.65
2022-10-30T02:14:40.288Z,56.03
2022-10-30T02:16:49.207Z,58.88
2022-10-30T02:18:56.704Z,47.78
2022-10-30T02:21:02.489Z,51.53
2022-10-30T02:23:09.309Z,57.55
2022-10-30T02:25:14.033Z,47.55
2022-10-30T02:27:19.031Z,51.40
2022-10-30T02:29:23.527Z,53.78
2022-10-30T02:31:27.946Z,47.72
2022-10-30T02:33:32.259Z,46.83
2022-10-30T02:35:36.887Z,60.63
2022-10-30T02:37:42.762Z,53.60
2022-10-30T02:39:47.119Z,55.53
2022-10-30T02:41:52.243Z,55.90
2022-10-30T02:43:56.706Z,54.33
2022-10-30T02:46:01.113Z,54.40
2022-10-30T02:48:05.713Z,57.30
2022-10-30T02:50:11.267Z,57.55
2022-10-30T02:52:15.673Z,53.53
2022-10-30T02:54:21.468Z,52.20
2022-10-30T02:56:26.758Z,50.45
2022-10-30T02:58:31.395Z,47.05
2022-10-30T03:00:35.842Z,49.17
2022-10-30T03:02:40.544Z,52.63
2022-10-30T03:04:44.780Z,49.55
2022-10-30T03:06:49.000Z,48.45
2022-10-30T03:08:53.225Z,53.13
2022-10-30T03:11:03.131Z,50.35
2022-10-30T03:15:12.052Z,50.60
2022-10-30T03:17:16.315Z,59.85
2022-10-30T03:19:20.902Z,48.88
2022-10-30T03:21:29.924Z,46.13
2022-10-30T03:23:34.600Z,46.72
2022-10-30T03:25:39.853Z,43.90
2022-10-30T03:27:45.398Z,48.03
2022-10-30T03:29:49.988Z,47.88
2022-10-30T03:31:54.198Z,55.15
2022-10-30T03:33:59.723Z,50.10
2022-10-30T03:36:04.544Z,45.75
2022-10-30T03:38:08.750Z,52.40
2022-10-30T03:40:13.823Z,49.90
2022-10-30T03:42:18.090Z,52.45
2022-10-30T03:44:24.326Z,45.67
2022-10-30T03:46:28.538Z,47.85
2022-10-30T03:48:41.946Z,46.63
2022-10-30T03:50:48.471Z,45.03
2022-10-30T03:52:55.205Z,48.28
2022-10-30T03:54:59.648Z,44.95
2022-10-30T03:57:03.844Z,48.58
2022-10-30T03:59:18.742Z,48.72
2022-10-30T04:01:40.856Z,45.28
2022-10-30T04:03:45.277Z,51.83
2022-10-30T04:05:51.173Z,48.25
2022-10-30T04:07:58.953Z,46.75
2022-10-30T04:10:03.867Z,45.20
2022-10-30T04:12:08.597Z,41.45
2022-10-30T04:14:12.828Z,41.80
2022-10-30T04:16:17.145Z,42.58
2022-10-30T04:18:23.594Z,44.92
2022-10-30T04:20:28.426Z,41.85
2022-10-30T04:22:32.633Z,40.65
2022-10-30T04:24:39.700Z,38.97
2022-10-30T04:26:44.341Z,39.28
2022-10-30T04:28:50.503Z,41.85
2022-10-30T04:30:54.842Z,37.63
2022-10-30T04:32:59.656Z,41.72
2022-10-30T04:35:06.180Z,38.72
2022-10-30T04:37:10.497Z,43.35
2022-10-30T04:39:15.297Z,41.70
2022-10-30T04:41:20.773Z,41.03
2022-10-30T04:43:34.221Z,42.53
2022-10-30T04:45:39.513Z,42.33
2022-10-30T04:47:44.545Z,38.22
2022-10-30T04:49:48.918Z,41.67
2022-10-30T04:51:55.896Z,36.85
2022-10-30T04:54:00.495Z,39.97
2022-10-30T04:56:08.495Z,44.85
2022-10-30T04:58:14.529Z,40.10
2022-10-30T05:00:21.341Z,39.72
2022-10-30T05:02:26.722Z,39.83
2022-10-30T05:04:31.615Z,47.28
2022-10-30T05:06:36.012Z,39.63
2022-10-30T05:08:41.751Z,38.75
2022-10-30T05:10:58.953Z,35.35
2022-10-30T05:13:03.370Z,36.63
2022-10-30T05:15:09.541Z,34.17
2022-10-30T05:17:15.209Z,34.92
2022-10-30T05:19:20.548Z,34.78
2022-10-30T05:21:30.537Z,32.10
2022-10-30T05:23:35.917Z,34.08
2022-10-30T05:25:42.105Z,36.05
2022-10-30T05:27:48.746Z,35.30
2022-10-30T05:29:55.725Z,31.45
2022-10-30T05:32:00.254Z,33.65
2022-10-30T05:34:16.787Z,34.95
2022-10-30T05:36:23.095Z,32.95
2022-10-30T05:38:27.905Z,35.88
2022-10-30T05:40:32.919Z,41.75
2022-10-30T05:42:38.788Z,29.73
2022-10-30T05:45:05.644Z,30.67
2022-10-30T05:47:13.472Z,27.70
2022-10-30T05:49:22.279Z,32.35
2022-10-30T05:51:26.633Z,29.42
2022-10-30T05:53:35.596Z,34.42
2022-10-30T05:55:40.735Z,31.02
2022-10-30T05:57:51.438Z,31.35
2022-10-30T05:59:55.828Z,32.53
2022-10-30T06:02:00.307Z,35.75
2022-10-30T06:04:05.389Z,37.53
2022-10-30T06:06:09.688Z,32.28
2022-10-30T06:08:16.295Z,40.85
2022-10-30T06:10:24.762Z,31.70
2022-10-30T06:13:00.801Z,35.78
2022-10-30T06:15:15.976Z,28.67
2022-10-30T06:17:20.184Z,28.90
2022-10-30T06:19:32.201Z,24.13
2022-10-30T06:22:00.195Z,34.33
2022-10-30T06:24:12.511Z,31.20
2022-10-30T06:28:44.691Z,25.20
2022-10-30T06:30:51.346Z,29.42
2022-10-30T06:32:59.003Z,28.35
2022-10-30T06:35:04.720Z,24.77
2022-10-30T06:37:09.098Z,28.23
2022-10-30T06:39:14.478Z,27.05
2022-10-30T06:41:40.163Z,26.63
2022-10-30T06:44:04.451Z,28.67
2022-10-30T06:46:10.131Z,26.10
2022-10-30T06:48:18.941Z,28.88
2022-10-30T06:50:30.316Z,32.80
2022-10-30T06:52:35.209Z,30.27
2022-10-30T06:54:41.385Z,29.40
2022-10-30T06:57:04.221Z,28.73
2022-10-30T06:59:28.474Z,28.25
2022-10-30T07:01:55.762Z,24.13
2022-10-30T07:04:04.695Z,31.10
2022-10-30T07:06:09.347Z,32.80
2022-10-30T07:08:15.311Z,25.98
2022-10-30T07:10:20.415Z,25.40
2022-10-30T07:12:43.067Z,32.08
2022-10-30T07:14:58.382Z,27.23
2022-10-30T07:17:09.948Z,28.55
2022-10-30T07:19:16.140Z,31.88
2022-10-30T07:21:20.594Z,31.77
2022-10-30T07:23:26.153Z,34.97
2022-10-30T07:25:37.642Z,26.33
2022-10-30T07:28:02.765Z,20.38
2022-10-30T07:30:37.143Z,30.08
2022-10-30T07:33:02.111Z,28.83
2022-10-30T07:35:38.686Z,19.55
2022-10-30T07:38:06.867Z,31.90
2022-10-30T07:40:23.850Z,33.17
2022-10-30T07:42:35.086Z,28.45
2022-10-30T07:44:58.151Z,25.05
2022-10-30T07:47:24.322Z,26.17
2022-10-30T07:49:54.669Z,25.98
2022-10-30T07:51:59.517Z,27.45
2022-10-30T07:54:04.154Z,25.27
2022-10-30T07:56:10.340Z,33.17
2022-10-30T07:58:29.775Z,24.13
2022-10-30T08:00:54.538Z,25.70
2022-10-30T08:03:08.914Z,25.88
2022-10-30T08:05:32.476Z,31.48
2022-10-30T08:07:57.376Z,28.92
2022-10-30T08:10:02.141Z,29.25
2022-10-30T08:12:08.027Z,36.50
2022-10-30T08:14:12.565Z,37.47
2022-10-30T08:16:18.406Z,32.50
2022-10-30T08:18:25.842Z,27.80
2022-10-30T08:20:30.457Z,33.22
2022-10-30T08:22:36.771Z,28.92
2022-10-30T08:24:42.488Z,28.17
2022-10-30T08:26:46.804Z,32.42
2022-10-30T08:28:51.597Z,31.98
2022-10-30T08:30:56.867Z,33.80
2022-10-30T08:33:18.760Z,37.20
2022-10-30T08:38:05.742Z,38.35
2022-10-30T08:40:12.542Z,37.90
2022-10-30T08:42:34.238Z,41.65
2022-10-30T08:44:42.961Z,39.22
2022-10-30T08:46:53.360Z,34.47
2022-10-30T08:48:58.249Z,30.10
2022-10-30T08:51:04.538Z,36.50
2022-10-30T08:53:15.818Z,33.78
2022-10-30T08:55:22.848Z,31.98
2022-10-30T08:57:28.125Z,30.90
2022-10-30T08:59:34.709Z,29.27
2022-10-30T09:01:39.448Z,27.40
2022-10-30T09:04:12.631Z,27.27
2022-10-30T09:06:37.171Z,36.13
2022-10-30T09:09:07.551Z,24.50
2022-10-30T09:11:23.897Z,27.17
2022-10-30T09:13:31.224Z,25.70
2022-10-30T09:15:36.994Z,35.65
2022-10-30T09:17:42.464Z,29.45
2022-10-30T09:22:05.277Z,33.42
2022-10-30T09:24:11.097Z,23.55
2022-10-30T09:26:18.332Z,27.92
2022-10-30T09:28:51.617Z,22.85
2022-10-30T09:31:14.235Z,26.88
2022-10-30T09:33:18.358Z,26.33
2022-10-30T09:35:48.611Z,27.13
2022-10-30T09:37:55.208Z,26.08
2022-10-30T09:39:59.454Z,31.75
2022-10-30T09:42:29.491Z,34.13
2022-10-30T09:44:52.412Z,33.75
2022-10-30T09:47:23.506Z,28.52
2022-10-30T09:49:52.033Z,29.17
2022-10-30T09:52:11.438Z,26.40
2022-10-30T09:54:36.350Z,31.77
2022-10-30T09:56:45.805Z,30.33
2022-10-30T09:59:01.013Z,30.08
2022-10-30T10:01:13.411Z,36.67
2022-10-30T10:03:35.453Z,32.00
2022-10-30T10:06:17.438Z,28.80
2022-10-30T10:08:39.132Z,34.83
2022-10-30T10:11:15.038Z,24.30
2022-10-30T10:13:31.039Z,25.85
2022-10-30T10:15:41.120Z,25.73
2022-10-30T10:17:47.228Z,32.13
2022-10-30T10:19:56.861Z,25.70
2022-10-30T10:22:03.661Z,27.90
2022-10-30T10:24:19.739Z,29.58
2022-10-30T10:26:48.449Z,32.78
2022-10-30T10:29:10.129Z,26.85
2022-10-30T10:31:29.459Z,28.52
2022-10-30T10:33:53.669Z,25.17
2022-10-30T10:36:10.173Z,27.60
2022-10-30T10:38:25.323Z,29.73
2022-10-30T10:40:41.642Z,26.45
2022-10-30T10:42:55.407Z,28.23
2022-10-30T10:45:16.943Z,30.10
2022-10-30T10:47:36.031Z,27.85
2022-10-30T10:49:55.275Z,31.80
2022-10-30T10:52:03.657Z,28.48
2022-10-30T10:54:13.457Z,26.65
2022-10-30T10:58:30.828Z,26.85
2022-10-30T11:00:35.712Z,23.33
2022-10-30T11:02:43.379Z,25.10
2022-10-30T11:04:51.159Z,24.73
2022-10-30T11:06:57.456Z,26.42
2022-10-30T11:09:15.392Z,29.13
2022-10-30T11:11:19.581Z,32.15
2022-10-30T11:13:26.138Z,28.45
2022-10-30T11:15:41.450Z,26.60
2022-10-30T11:17:53.704Z,23.77
2022-10-30T11:20:02.644Z,23.63
2022-10-30T11:22:19.467Z,25.20
2022-10-30T11:24:32.408Z,21.83
2022-10-30T11:26:37.319Z,24.17
2022-10-30T11:28:50.954Z,22.65
2022-10-30T11:31:19.038Z,24.05
2022-10-30T11:33:24.467Z,24.27
2022-10-30T11:35:28.715Z,23.00
2022-10-30T11:37:35.047Z,21.48
2022-10-30T11:39:39.289Z,26.20
2022-10-30T11:41:43.533Z,28.33
2022-10-30T11:43:50.248Z,27.52
2022-10-30T11:45:55.320Z,23.85
2022-10-30T11:48:02.949Z,22.45
2022-10-30T11:50:17.951Z,27.88
2022-10-30T11:52:25.769Z,24.65
2022-10-30T11:54:30.278Z,30.45
2022-10-30T11:56:36.580Z,28.48
2022-10-30T11:58:46.072Z,24.75
2022-10-30T12:01:04.151Z,25.92
2022-10-30T12:03:28.981Z,21.65
2022-10-30T12:05:37.842Z,26.73
2022-10-30T12:07:41.929Z,23.20
2022-10-30T12:09:48.160Z,26.67
2022-10-30T12:11:52.341Z,24.95
2022-10-30T12:13:56.981Z,27.17
2022-10-30T12:16:16.920Z,21.85
2022-10-30T12:20:30.471Z,21.40
2022-10-30T12:22:39.603Z,24.73
2022-10-30T12:24:46.040Z,28.08
2022-10-30T12:26:55.383Z,22.30
2022-10-30T12:29:02.350Z,22.50
2022-10-30T12:31:11.673Z,23.38
2022-10-30T12:33:21.929Z,22.02
2022-10-30T12:35:39.782Z,20.58
2022-10-30T12:37:45.513Z,22.83
2022-10-30T12:39:58.653Z,18.98
2022-10-30T12:42:08.430Z,21.08
2022-10-30T12:44:19.455Z,21.35
2022-10-30T12:46:34.489Z,19.58
2022-10-30T12:48:49.495Z,22.13
2022-10-30T12:51:05.913Z,19.52
2022-10-30T12:53:27.147Z,22.75
2022-10-30T12:55:36.939Z,23.15
2022-10-30T12:57:47.769Z,22.92
2022-10-30T13:00:00.797Z,25.92
2022-10-30T13:02:16.934Z,18.83
2022-10-30T13:04:26.503Z,19.40
2022-10-30T13:06:34.082Z,25.02
2022-10-30T13:08:44.937Z,18.85
2022-10-30T13:10:55.736Z,19.88
2022-10-30T13:13:04.695Z,27.10
2022-10-30T13:15:18.940Z,23.87
2022-10-30T13:17:23.262Z,21.98
2022-10-30T13:19:28.805Z,28.27
2022-10-30T13:21:37.261Z,20.40
2022-10-30T13:23:49.668Z,22.20
2022-10-30T13:26:06.168Z,26.75
2022-10-30T13:28:18.391Z,23.90
2022-10-30T13:30:24.435Z,20.45
2022-10-30T13:32:35.862Z,20.52
2022-10-30T13:34:50.819Z,25.30
2022-10-30T13:37:02.612Z,21.15
2022-10-30T13:39:19.368Z,25.85
2022-10-30T13:41:32.961Z,21.95
2022-10-30T13:43:44.957Z,20.23
2022-10-30T13:46:24.316Z,21.77
2022-10-30T13:48:40.837Z,20.67
2022-10-30T13:51:06.602Z,20.00
2022-10-30T13:53:15.973Z,20.50
2022-10-30T13:55:24.207Z,22.85
2022-10-30T13:57:35.077Z,23.73
2022-10-30T13:59:54.574Z,19.30
2022-10-30T14:02:05.459Z,19.08
2022-10-30T14:04:16.598Z,20.92
2022-10-30T14:06:33.691Z,17.65
2022-10-30T14:08:41.060Z,18.52
2022-10-30T14:10:47.416Z,19.00
2022-10-30T14:12:53.778Z,18.55
2022-10-30T14:14:57.911Z,22.60
2022-10-30T14:17:14.518Z,16.33
2022-10-30T14:19:19.891Z,19.02
2022-10-30T14:21:42.323Z,17.02
2022-10-30T14:23:46.524Z,15.95
2022-10-30T14:26:16.222Z,20.05
2022-10-30T14:28:22.182Z,18.98
2022-10-30T14:30:29.459Z,18.70
2022-10-30T14:32:49.172Z,20.60
2022-10-30T14:37:04.449Z,16.83
2022-10-30T14:39:28.810Z,20.25
2022-10-30T14:41:46.022Z,18.98
2022-10-30T14:44:00.509Z,15.38
2022-10-30T14:46:16.564Z,20.60
2022-10-30T14:48:29.529Z,21.10
2022-10-30T14:51:01.676Z,16.77
2022-10-30T14:53:23.276Z,17.85
2022-10-30T14:55:32.300Z,16.48
2022-10-30T14:57:48.581Z,20.95
2022-10-30T15:00:40.106Z,16.73
2022-10-30T15:02:54.550Z,21.77
2022-10-30T15:05:16.108Z,16.50
2022-10-30T15:07:27.513Z,21.52
2022-10-30T15:10:03.206Z,29.60
2022-10-30T15:12:24.269Z,27.58
2022-10-30T15:14:53.057Z,30.35
2022-10-30T15:17:01.156Z,23.92
2022-10-30T15:19:17.156Z,38.55
2022-10-30T15:21:25.825Z,46.30
2022-10-30T15:23:32.620Z,63.28
2022-10-30T15:25:46.098Z,72.55
2022-10-30T15:27:53.264Z,76.38
2022-10-30T15:30:02.495Z,72.07
2022-10-30T15:32:17.452Z,60.08
2022-10-30T15:34:23.710Z,71.05
2022-10-30T15:36:30.739Z,62.83
2022-10-30T15:38:35.335Z,95.32
2022-10-30T15:40:41.353Z,124.45
2022-10-30T15:42:47.687Z,79.75
2022-10-30T15:44:53.034Z,72.70
2022-10-30T15:46:59.333Z,67.97
2022-10-30T15:49:03.820Z,56.80
2022-10-30T15:51:13.529Z,106.90
2022-10-30T15:53:20.885Z,87.90
2022-10-30T15:55:29.738Z,107.35
2022-10-30T16:00:08.582Z,155.43
2022-10-30T16:02:22.625Z,124.68
2022-10-30T16:04:32.706Z,148.30
2022-10-30T16:06:37.059Z,163.18
2022-10-30T16:08:46.311Z,123.93
2022-10-30T16:10:51.334Z,171.02
2022-10-30T16:12:58.936Z,194.43
2022-10-30T16:15:08.705Z,207.50
2022-10-30T16:17:13.589Z,104.20
2022-10-30T16:19:27.931Z,106.20
2022-10-30T16:21:35.299Z,111.20
2022-10-30T16:23:42.093Z,96.53
2022-10-30T16:25:47.569Z,82.10
2022-10-30T16:27:51.893Z,148.25
2022-10-30T16:29:59.841Z,151.40
2022-10-30T16:32:04.719Z,201.57
2022-10-30T16:34:14.629Z,172.50
2022-10-30T16:36:20.704Z,108.93
2022-10-30T16:38:27.929Z,107.93
2022-10-30T16:40:32.821Z,69.70
2022-10-30T16:42:37.220Z,102.85
2022-10-30T16:44:41.571Z,85.93
2022-10-30T16:46:52.307Z,70.63
2022-10-30T16:49:00.211Z,64.80
2022-10-30T16:51:05.979Z,65.28
2022-10-30T16:53:18.818Z,70.15
2022-10-30T16:55:24.417Z,73.68
2022-10-30T16:57:31.317Z,74.57
2022-10-30T16:59:38.836Z,64.07
2022-10-30T17:01:44.813Z,72.80
2022-10-30T17:03:51.149Z,56.65
2022-10-30T17:06:01.464Z,40.00
2022-10-30T17:08:09.374Z,39.42
2022-10-30T17:10:32.934Z,33.72
2022-10-30T17:12:37.237Z,34.17
2022-10-30T17:14:51.282Z,27.20
2022-10-30T17:16:57.346Z,40.67
2022-10-30T17:19:24.096Z,33.33
2022-10-30T17:21:31.067Z,43.58
2022-10-30T17:23:36.544Z,42.53
2022-10-30T17:25:42.143Z,42.50
2022-10-30T17:27:49.496Z,38.80
2022-10-30T17:29:53.762Z,38.17
2022-10-30T17:31:59.984Z,48.95
2022-10-30T17:34:16.309Z,38.35
2022-10-30T17:36:20.667Z,42.80
2022-10-30T17:38:24.918Z,41.38
2022-10-30T17:40:29.405Z,41.33
2022-10-30T17:42:33.878Z,39.00
2022-10-30T17:44:38.720Z,50.88
2022-10-30T17:46:43.007Z,49.88
2022-10-30T17:48:47.544Z,43.00
2022-10-30T17:50:53.647Z,44.45
2022-10-30T17:52:58.215Z,47.60
2022-10-30T17:55:04.023Z,40.08
2022-10-30T17:57:10.905Z,36.05
2022-10-30T17:59:15.279Z,39.55
2022-10-30T18:01:21.870Z,33.28
2022-10-30T18:03:26.468Z,35.25
2022-10-30T18:05:31.633Z,43.28
2022-10-30T18:07:37.478Z,35.03
2022-10-30T18:09:41.971Z,29.75
2022-10-30T18:11:46.306Z,37.00
2022-10-30T18:13:51.321Z,33.05
2022-10-30T18:15:59.149Z,42.85
2022-10-30T18:18:03.820Z,33.03
2022-10-30T18:20:08.976Z,45.85
2022-10-30T18:22:13.187Z,33.15
2022-10-30T18:24:20.151Z,41.55
2022-10-30T18:26:26.066Z,28.90
2022-10-30T18:28:30.553Z,39.22
2022-10-30T18:30:34.891Z,39.95
2022-10-30T18:32:39.101Z,44.13
2022-10-30T18:34:43.253Z,44.15
2022-10-30T18:36:47.494Z,30.73
2022-10-30T18:38:52.778Z,39.42
2022-10-30T18:40:59.656Z,94.00
2022-10-30T18:43:03.990Z,280.25
2022-10-30T18:45:24.298Z,137.00
2022-10-30T18:47:28.515Z,124.45
2022-10-30T18:49:33.649Z,130.52
2022-10-30T18:51:38.680Z,142.38
2022-10-30T18:53:44.970Z,114.95
2022-10-30T18:55:49.383Z,118.18
2022-10-30T18:57:57.635Z,81.97
2022-10-30T19:00:04.250Z,69.75
2022-10-30T19:02:20.992Z,64.90
2022-10-30T19:04:25.329Z,65.03
2022-10-30T19:06:30.112Z,58.90
2022-10-30T19:08:34.488Z,52.55
2022-10-30T19:10:40.342Z,46.22
2022-10-30T19:13:04.283Z,36.72
2022-10-30T19:15:17.791Z,57.17
2022-10-30T19:17:22.249Z,52.65
2022-10-30T19:19:30.058Z,54.45
2022-10-30T19:21:35.452Z,54.10
2022-10-30T19:23:39.873Z,56.95
2022-10-30T19:25:46.136Z,48.83
2022-10-30T19:27:51.365Z,41.28
2022-10-30T19:29:55.918Z,36.13
2022-10-30T19:32:01.951Z,36.05
2022-10-30T19:34:06.282Z,39.35
2022-10-30T19:36:28.549Z,43.92
2022-10-30T19:38:34.276Z,42.85
2022-10-30T19:40:39.674Z,42.50
2022-10-30T19:42:44.196Z,38.25
2022-10-30T19:44:48.429Z,34.35
2022-10-30T19:46:53.267Z,38.97
2022-10-30T19:49:00.372Z,34.47
2022-10-30T19:51:07.281Z,36.78
2022-10-30T19:53:11.967Z,34.55
2022-10-30T19:55:16.705Z,35.33
2022-10-30T19:57:22.253Z,34.97
2022-10-30T19:59:27.337Z,32.78
2022-10-30T20:01:31.744Z,32.00
2022-10-30T20:03:36.594Z,39.85
2022-10-30T20:05:45.597Z,31.38
2022-10-30T20:08:02.602Z,37.45
2022-10-30T20:10:19.902Z,42.58
2022-10-30T20:12:24.221Z,40.42
2022-10-30T20:14:28.527Z,37.42
2022-10-30T20:16:32.888Z,37.97
2022-10-30T20:18:38.375Z,38.33
2022-10-30T20:20:48.987Z,32.03
2022-10-30T20:22:53.454Z,32.58
2022-10-30T20:24:57.725Z,35.92
2022-10-30T20:27:02.440Z,34.65
2022-10-30T20:29:06.821Z,37.55
2022-10-30T20:31:13.886Z,37.60
2022-10-30T20:33:19.405Z,38.47
2022-10-30T20:35:24.367Z,35.83
2022-10-30T20:37:30.165Z,33.38
2022-10-30T20:39:34.368Z,39.92
2022-10-30T20:41:41.657Z,33.67
2022-10-30T20:43:45.891Z,39.38
2022-10-30T20:45:50.309Z,38.35
2022-10-30T20:47:54.722Z,38.20
2022-10-30T20:49:58.931Z,36.40
2022-10-30T20:52:03.247Z,35.33
2022-10-30T20:54:08.949Z,38.85
2022-10-30T20:56:13.936Z,37.20
2022-10-30T20:58:18.490Z,34.38
2022-10-30T21:00:23.928Z,37.60
2022-10-30T21:02:28.355Z,39.55
2022-10-30T21:04:32.927Z,36.35
2022-10-30T21:06:37.342Z,30.42
2022-10-30T21:08:42.170Z,43.92
2022-10-30T21:10:48.463Z,33.63
2022-10-30T21:14:57.274Z,32.95
2022-10-30T21:17:01.900Z,37.45
2022-10-30T21:19:08.386Z,37.33
2022-10-30T21:21:13.632Z,31.10
2022-10-30T21:23:17.906Z,36.13
2022-10-30T21:25:22.389Z,35.13
2022-10-30T21:27:28.091Z,35.20
2022-10-30T21:29:34.318Z,42.72
2022-10-30T21:31:39.491Z,36.20
2022-10-30T21:33:43.775Z,34.75
2022-10-30T21:35:48.058Z,29.95
2022-10-30T21:37:52.435Z,34.35
2022-10-30T21:39:56.710Z,35.72
2022-10-30T21:42:00.950Z,35.17
2022-10-30T21:44:06.671Z,33.78
2022-10-30T21:46:12.965Z,40.15
2022-10-30T21:48:17.872Z,41.55
2022-10-30T21:50:22.377Z,37.50
2022-10-30T21:52:26.780Z,33.53
2022-10-30T21:54:31.057Z,37.25
2022-10-30T21:56:36.186Z,33.65
2022-10-30T21:58:40.684Z,37.60
2022-10-30T22:00:46.466Z,33.97
2022-10-30T22:02:52.195Z,35.47
2022-10-30T22:04:56.726Z,38.35
2022-10-30T22:07:01.029Z,34.40
2022-10-30T22:09:05.417Z,39.75
2022-10-30T22:11:11.917Z,38.47
2022-10-30T22:13:16.490Z,33.65
2022-10-30T22:15:20.856Z,32.75
2022-10-30T22:17:30.667Z,45.75
2022-10-30T22:19:38.646Z,43.50
2022-10-30T22:21:42.816Z,44.25
2022-10-30T22:23:47.117Z,41.05
2022-10-30T22:25:55.997Z,41.25
2022-10-30T22:28:00.705Z,34.10
2022-10-30T22:30:05.579Z,36.78
2022-10-30T22:32:10.220Z,42.47
2022-10-30T22:34:15.883Z,44.63
2022-10-30T22:36:22.575Z,43.03
2022-10-30T22:38:26.832Z,44.25
2022-10-30T22:40:31.137Z,44.67
2022-10-30T22:42:36.882Z,44.40
2022-10-30T22:44:41.179Z,42.72
2022-10-30T22:46:46.200Z,40.83
2022-10-30T22:48:50.971Z,42.20
2022-10-30T22:50:59.597Z,41.65
2022-10-30T22:53:03.919Z,42.35
2022-10-30T22:55:09.090Z,45.38
2022-10-30T22:57:13.324Z,40.38
2022-10-30T22:59:17.626Z,40.85
2022-10-30T23:01:24.637Z,44.67
2022-10-30T23:03:29.403Z,48.13
2022-10-30T23:05:33.789Z,49.40
2022-10-30T23:07:39.564Z,46.55
2022-10-30T23:09:43.824Z,43.55
2022-10-30T23:11:48.081Z,43.55
2022-10-30T23:13:53.243Z,46.15
2022-10-30T23:16:01.728Z,47.50
2022-10-30T23:18:06.831Z,48.72
2022-10-30T23:20:11.656Z,50.05
2022-10-30T23:22:16.050Z,43.05
2022-10-30T23:24:21.821Z,48.45
2022-10-30T23:26:28.654Z,45.13
2022-10-30T23:28:32.946Z,43.78
2022-10-30T23:30:37.652Z,49.15
2022-10-30T23:32:42.268Z,40.53
2022-10-30T23:34:46.688Z,44.80
2022-10-30T23:36:50.840Z,42.03
2022-10-30T23:38:56.038Z,44.88
2022-10-30T23:41:01.884Z,44.08
2022-10-30T23:43:06.074Z,42.83
2022-10-30T23:45:10.878Z,42.08
2022-10-30T23:47:15.141Z,40.53
2022-10-30T23:49:19.610Z,46.45
2022-10-30T23:51:24.171Z,41.75
2022-10-30T23:53:28.367Z,37.83
2022-10-30T23:55:32.877Z,35.33
2022-10-30T23:57:38.712Z,35.53
2022-10-30T23:59:43.130Z,50.17
